CheckWX is a tool to help pilots better visualize weather data.  It is not intended as a substitute for an official pre-flight weather briefing.

09:26:36 UTC

0S9 METAR
Jefferson County International Airport
Port Townsend, Washington, USA
Current

32 mins ago

K0S9 200855Z AUTO 00000KT 10SM OVC015 04/03 A2985 RMK AO2
Observed
Feb-20 @ 08:55 UTC
Visibility
16,093 meters
Flight Rules
MVFR
Cloud Levels
  • Overcast at 1,500' AGL
Temperature
C / 39°F
Dewpoint
C / 37°F
Humidity
93%
Altimeter
29.85" Hg
Pressure
1010.82 hPa
Previous

52 mins ago

K0S9 200835Z AUTO VRB05KT 10SM SCT012 OVC017 04/03 A2985 RMK AO2
Observed
Feb-20 @ 08:35 UTC
Wind
  • Variable at 5 KTS
Visibility
16,093 meters
Flight Rules
MVFR
Cloud Levels
  • Scattered at 1,200' AGL
  • Overcast at 1,700' AGL
Temperature
C / 39°F
Dewpoint
C / 37°F
Humidity
93%
Altimeter
29.85" Hg
Pressure
1010.82 hPa
Previous

1 hour ago

K0S9 200815Z AUTO 00000KT 10SM OVC012 04/03 A2985 RMK AO2
Observed
Feb-20 @ 08:15 UTC
Visibility
16,093 meters
Flight Rules
MVFR
Cloud Levels
  • Overcast at 1,200' AGL
Temperature
C / 39°F
Dewpoint
C / 37°F
Humidity
93%
Altimeter
29.85" Hg
Pressure
1010.82 hPa